Time;durP1;ratioP1;P1;durP2;ratioP2;P2;SDS_P1;SDS_P2;PMS_P1;PMS_P2;Temp;Humidity;BMP_temperature;BMP_pressure;BME280_temperature;BME280_humidity;BME280_pressure;Samples;Min_cycle;Max_cycle;Signal;HPM_P1;HPM_P2
2023/03/08 00:01:24;;;;;;;6.00;5.43;;;4.50;99.90;;;4.83;70.92;99895.44;5034032;28;20041;-68
2023/03/08 00:03:54;;;;;;;9.65;5.65;;;4.60;99.90;;;4.85;70.54;99886.75;5034079;28;20484;-68
2023/03/08 00:06:25;;;;;;;9.52;4.90;;;4.70;99.90;;;4.93;70.26;99890.25;5034282;28;20092;-67
2023/03/08 00:08:56;;;;;;;9.25;6.10;;;4.70;99.90;;;4.99;70.29;99892.00;5034041;28;20076;-67
2023/03/08 00:11:25;;;;;;;6.63;6.00;;;4.80;99.90;;;5.01;70.52;99885.91;5033987;28;20111;-67
2023/03/08 00:13:54;;;;;;;7.70;6.10;;;4.90;99.90;;;4.92;71.03;99890.22;5034071;28;20405;-67
2023/03/08 00:16:24;;;;;;;8.57;5.70;;;4.80;99.90;;;4.84;72.36;99884.97;5033713;28;20045;-68
2023/03/08 00:18:52;;;;;;;6.70;6.10;;;4.80;99.90;;;4.77;73.02;99888.47;5033799;28;20044;-68
2023/03/08 00:21:21;;;;;;;6.40;5.80;;;4.70;99.90;;;4.76;73.00;99885.84;5033941;28;20052;-68
2023/03/08 00:23:53;;;;;;;6.83;5.87;;;4.60;99.90;;;4.84;72.88;99889.38;5033631;28;20044;-68
2023/03/08 00:26:22;;;;;;;11.27;6.27;;;4.70;99.90;;;4.88;72.55;99883.25;5033878;28;20045;-68
2023/03/08 00:28:51;;;;;;;7.73;6.10;;;4.70;99.90;;;4.90;71.83;99877.13;5033841;28;20069;-68
2023/03/08 00:31:20;;;;;;;8.23;6.50;;;4.70;99.90;;;4.94;71.90;99878.00;5032447;28;20045;-68
2023/03/08 00:33:53;;;;;;;7.07;6.17;;;4.80;99.90;;;4.86;72.29;99867.50;5032442;28;20111;-68
2023/03/08 00:36:22;;;;;;;8.63;5.40;;;4.80;99.90;;;4.76;72.88;99863.16;5033367;28;20049;-68
2023/03/08 00:38:51;;;;;;;10.53;6.80;;;4.70;99.90;;;4.75;73.71;99863.13;5032177;28;20057;-68
2023/03/08 00:41:20;;;;;;;8.03;5.73;;;4.60;99.90;;;4.76;73.34;99862.28;5033583;28;20041;-68
2023/03/08 00:43:48;;;;;;;7.23;6.23;;;4.60;99.90;;;4.59;73.96;99854.34;5033449;28;20073;-68
2023/03/08 00:46:17;;;;;;;6.73;6.00;;;4.50;99.90;;;4.65;73.82;99862.22;5033477;28;20535;-68
2023/03/08 00:48:45;;;;;;;11.50;6.43;;;4.50;99.90;;;4.65;73.70;99859.59;5033417;28;20133;-68
2023/03/08 00:51:19;;;;;;;8.60;6.28;;;4.50;99.90;;;4.59;73.83;99855.22;5032230;28;20053;-68
2023/03/08 00:53:48;;;;;;;8.17;6.27;;;4.50;99.90;;;4.62;73.95;99869.19;5031941;28;20085;-68
2023/03/08 00:56:17;;;;;;;7.63;6.13;;;4.40;99.90;;;4.47;73.90;99855.19;5033290;28;20049;-68
2023/03/08 00:58:46;;;;;;;10.57;6.37;;;4.30;99.90;;;4.41;73.78;99852.53;5033284;28;20080;-68
2023/03/08 01:01:17;;;;;;;11.30;6.77;;;4.20;99.90;;;4.46;73.27;99853.44;5033816;28;20048;-68
2023/03/08 01:03:47;;;;;;;12.37;6.60;;;4.30;99.90;;;4.40;73.64;99844.69;5032998;28;20548;-68
2023/03/08 01:06:18;;;;;;;7.87;5.30;;;4.30;99.90;;;4.43;73.27;99856.03;5031830;28;20056;-68
2023/03/08 01:08:46;;;;;;;9.75;6.05;;;4.30;99.90;;;4.44;73.49;99844.72;5033184;28;20120;-68
2023/03/08 01:11:22;;;;;;;9.27;6.33;;;4.30;99.90;;;4.42;73.33;99838.59;5032879;28;20075;-68
2023/03/08 01:13:52;;;;;;;13.00;6.43;;;4.30;99.90;;;4.42;73.68;99835.09;5033095;28;20057;-68
2023/03/08 01:16:22;;;;;;;;;;;4.30;99.90;;;4.44;73.52;99831.63;5048852;28;20045;-68
2023/03/08 01:18:51;;;;;;;7.57;5.88;;;4.30;99.90;;;4.56;72.97;99822.94;5032979;28;19968;-68
2023/03/08 01:21:22;;;;;;;7.83;5.53;;;4.40;99.90;;;4.52;72.99;99814.19;5031909;28;20073;-68
2023/03/08 01:23:51;;;;;;;9.63;6.40;;;4.40;99.90;;;4.64;72.57;99817.72;5032957;28;20152;-68
2023/03/08 01:26:22;;;;;;;9.10;5.90;;;4.50;99.90;;;4.69;72.23;99813.34;5032879;28;20099;-68
2023/03/08 01:28:51;;;;;;;9.83;6.47;;;4.50;99.90;;;4.65;72.28;99802.00;5048213;28;20056;-68
2023/03/08 01:31:22;;;;;;;12.07;6.60;;;4.50;99.90;;;4.56;72.50;99789.78;5032783;28;20488;-68
2023/03/08 01:33:52;;;;;;;6.70;6.00;;;4.40;99.90;;;4.58;73.05;99793.28;5031553;28;20084;-68
2023/03/08 01:36:25;;;;;;;7.40;6.33;;;4.40;99.90;;;4.62;72.62;99786.28;5032833;28;20128;-68
2023/03/08 01:38:53;;;;;;;7.17;6.43;;;4.40;99.90;;;4.66;72.53;99788.06;5032751;28;20397;-68
2023/03/08 01:41:25;;;;;;;8.00;6.93;;;4.50;99.90;;;4.64;72.88;99775.81;5032736;28;20124;-68
2023/03/08 01:43:54;;;;;;;8.00;5.83;;;4.50;99.90;;;4.65;73.11;99788.91;5031489;28;20111;-69
2023/03/08 01:46:30;;;;;;;8.33;6.60;;;4.40;99.90;;;4.74;72.75;99780.22;5031389;28;20117;-68
2023/03/08 01:49:17;;;;;;;10.90;6.63;;;4.50;99.90;;;4.43;72.11;99747.88;5031146;28;20152;-69
2023/03/08 01:51:52;;;;;;;8.03;6.43;;;4.40;99.90;;;4.53;71.92;99770.53;5034807;28;20401;-68
2023/03/08 01:54:26;;;;;;;8.37;5.93;;;4.30;99.90;;;4.59;72.17;99778.41;5035274;28;20092;-68
2023/03/08 01:57:00;;;;;;;8.63;5.43;;;4.30;99.90;;;4.41;72.02;99755.69;5036651;28;20049;-68
2023/03/08 01:59:31;;;;;;;10.13;5.60;;;4.30;99.90;;;4.49;72.45;99768.81;5035402;28;20057;-68
2023/03/08 02:02:00;;;;;;;10.07;6.07;;;4.20;99.90;;;4.49;72.20;99768.81;5035301;28;20084;-68
2023/03/08 02:04:31;;;;;;;8.97;6.13;;;4.20;99.90;;;4.29;72.89;99755.69;5035299;28;20411;-68
2023/03/08 02:07:01;;;;;;;8.90;6.33;;;4.10;99.90;;;4.24;72.97;99761.78;5036749;28;20457;-67
2023/03/08 02:09:29;;;;;;;10.20;7.53;;;4.10;99.90;;;4.38;73.22;99765.28;5035214;28;20072;-68
2023/03/08 02:12:04;;;;;;;10.02;7.18;;;4.20;99.90;;;4.03;74.10;99752.09;5035142;28;20050;-68
2023/03/08 02:14:33;;;;;;;8.10;7.33;;;4.10;99.90;;;4.06;73.98;99732.94;5036162;28;20128;-68
2023/03/08 02:17:01;;;;;;;7.93;7.03;;;4.10;99.90;;;4.09;74.36;99743.41;5034922;28;20050;-68
2023/03/08 02:19:38;;;;;;;11.87;7.37;;;4.00;99.90;;;4.10;74.65;99735.56;5036276;28;20053;-68
2023/03/08 02:22:14;;;;;;;10.47;7.00;;;4.00;99.90;;;4.16;74.52;99732.94;5035009;28;20095;-68
2023/03/08 02:24:44;;;;;;;15.40;7.73;;;4.10;99.90;;;3.95;74.76;99729.41;5034940;28;20046;-68
2023/03/08 02:27:18;;;;;;;7.55;6.43;;;3.90;99.90;;;3.98;74.97;99726.81;5034868;28;20058;-68
2023/03/08 02:29:46;;;;;;;9.10;6.73;;;4.00;99.90;;;4.06;75.22;99725.97;5051499;28;20136;-68
2023/03/08 02:32:16;;;;;;;11.83;6.83;;;4.00;99.90;;;4.15;75.21;99719.88;5051331;28;20046;-68
2023/03/08 02:34:45;;;;;;;8.77;6.73;;;4.10;99.90;;;4.30;74.75;99731.25;5035731;28;20503;-68
2023/03/08 02:37:13;;;;;;;9.67;6.50;;;4.20;99.90;;;4.32;74.81;99726.00;5034691;28;20103;-68
2023/03/08 02:39:41;;;;;;;9.63;7.80;;;4.30;99.90;;;4.40;74.91;99746.09;5034487;28;20060;-68
2023/03/08 02:42:11;;;;;;;12.03;8.27;;;4.30;99.90;;;4.40;74.53;99737.38;5035559;28;20581;-68
2023/03/08 02:44:39;;;;;;;10.32;7.43;;;4.30;99.90;;;4.44;74.78;99741.75;5035825;28;20123;-68
2023/03/08 02:47:09;;;;;;;13.93;6.83;;;4.30;99.90;;;4.47;74.98;99740.00;5035772;28;20055;-68
2023/03/08 02:49:37;;;;;;;8.90;7.07;;;4.40;99.90;;;4.47;74.82;99742.63;5035712;28;20045;-68
2023/03/08 02:52:06;;;;;;;12.53;7.63;;;4.40;99.90;;;4.48;75.15;99736.53;5034441;28;20555;-68
2023/03/08 02:54:34;;;;;;;9.50;7.13;;;4.30;99.90;;;4.54;75.03;99731.31;5035681;28;20480;-69
2023/03/08 02:57:02;;;;;;;9.97;6.87;;;4.40;99.90;;;4.59;74.75;99713.84;5034252;28;20045;-68
2023/03/08 02:59:32;;;;;;;15.20;7.93;;;4.50;99.90;;;4.62;75.12;99709.47;5034146;28;20041;-68
2023/03/08 03:02:01;;;;;;;12.48;8.30;;;4.50;99.90;;;4.67;74.95;99698.13;5049454;28;20484;-68
2023/03/08 03:04:30;;;;;;;9.93;8.10;;;4.60;99.90;;;4.71;74.95;99689.41;5035505;28;20041;-68
2023/03/08 03:06:59;;;;;;;20.23;8.17;;;4.60;99.90;;;4.71;75.07;99691.16;5035353;28;20044;-68
2023/03/08 03:09:29;;;;;;;12.15;8.38;;;4.60;99.90;;;4.70;74.91;99699.88;5034128;28;20073;-68
2023/03/08 03:11:58;;;;;;;16.33;7.80;;;4.60;99.90;;;4.53;75.63;99686.78;5034234;28;20421;-68
2023/03/08 03:14:28;;;;;;;9.87;7.67;;;4.50;99.90;;;4.47;75.84;99685.03;5033876;28;20053;-69
2023/03/08 03:16:58;;;;;;;;;;;4.40;99.90;;;4.43;76.23;99683.28;5050935;28;20071;-69
2023/03/08 03:19:27;;;;;;;13.23;8.33;;;4.50;99.90;;;4.35;76.60;99673.69;5035395;28;19928;-68
2023/03/08 03:21:55;;;;;;;11.93;8.47;;;4.30;99.90;;;4.48;76.52;99671.09;5035105;28;20111;-68
2023/03/08 03:24:24;;;;;;;10.77;8.60;;;4.40;99.90;;;4.19;77.36;99644.03;5033492;28;20598;-68
2023/03/08 03:26:56;;;;;;;15.83;10.50;;;4.30;99.90;;;4.14;78.34;99652.72;5033799;28;20115;-68
2023/03/08 03:29:27;;;;;;;18.43;10.03;;;4.20;99.90;;;4.10;79.34;99644.00;5033790;28;20053;-68
2023/03/08 03:32:08;;;;;;;11.87;9.53;;;4.00;99.90;;;3.83;79.94;99636.13;5033696;28;20051;-68
2023/03/08 03:34:36;;;;;;;;;;;3.70;99.90;;;3.87;81.18;99629.16;5050797;28;20049;-68
2023/03/08 03:37:05;;;;;;;18.60;12.27;;;3.70;99.90;;;3.92;82.10;99632.63;5050238;28;19943;-68
2023/03/08 03:39:37;;;;;;;16.73;12.30;;;3.80;99.90;;;3.95;82.28;99640.50;5034716;28;20072;-69
2023/03/08 03:42:09;;;;;;;19.10;13.80;;;3.80;99.90;;;3.85;83.20;99607.34;5033492;28;20045;-69
2023/03/08 03:44:42;;;;;;;16.03;12.70;;;3.80;99.90;;;4.04;82.97;99622.19;5033500;28;20152;-68
2023/03/08 03:47:16;;;;;;;23.10;14.43;;;3.90;99.90;;;4.19;83.62;99637.91;5033394;28;20053;-68
2023/03/08 03:49:46;;;;;;;20.60;15.53;;;4.00;99.90;;;4.24;83.63;99637.03;5033401;28;20053;-68
2023/03/08 03:52:17;;;;;;;22.03;15.07;;;4.10;99.90;;;4.36;83.39;99631.81;5033352;28;20045;-68
2023/03/08 03:54:53;;;;;;;22.50;14.27;;;4.20;99.90;;;4.48;83.44;99629.19;5033094;28;20053;-68
2023/03/08 03:57:22;;;;;;;21.87;14.77;;;4.30;99.90;;;4.47;83.02;99630.06;5033179;28;20053;-68
2023/03/08 03:59:50;;;;;;;21.80;15.23;;;4.40;99.90;;;4.44;82.88;99618.72;5033089;28;20060;-68
2023/03/08 04:02:21;;;;;;;18.37;14.90;;;4.40;99.90;;;4.45;83.13;99621.34;5033038;28;20750;-68
2023/03/08 04:04:54;;;;;;;20.87;15.40;;;4.40;99.90;;;4.56;82.81;99617.00;5032808;28;20049;-69
2023/03/08 04:07:27;;;;;;;22.77;14.83;;;4.40;99.90;;;4.55;82.72;99607.38;5032950;28;20143;-68
2023/03/08 04:10:00;;;;;;;17.47;13.63;;;4.50;99.90;;;4.53;82.26;99610.84;5033236;28;20389;-68
2023/03/08 04:12:30;;;;;;;18.10;13.70;;;4.50;99.90;;;3.99;82.27;99509.72;5032299;28;20060;-68
2023/03/08 04:14:59;;;;;;;15.90;13.13;;;4.50;99.90;;;4.64;81.85;99603.00;5034093;28;20042;-68
2023/03/08 04:17:32;;;;;;;19.03;13.20;;;4.50;99.90;;;4.59;82.16;99588.19;5032769;28;20059;-68
2023/03/08 04:20:04;;;;;;;20.60;13.77;;;4.50;99.90;;;4.64;82.13;99600.38;5033717;28;20041;-69
2023/03/08 04:22:36;;;;;;;19.13;14.20;;;4.50;99.90;;;4.39;82.14;99594.31;5032749;28;20049;-69
2023/03/08 04:25:16;;;;;;;21.87;15.73;;;4.40;99.90;;;4.46;82.52;99596.91;5032388;28;20103;-68
2023/03/08 04:27:51;;;;;;;23.30;16.27;;;4.40;99.90;;;4.56;82.86;99593.44;5032888;28;20459;-68
2023/03/08 04:30:21;;;;;;;22.90;16.20;;;4.40;99.90;;;4.55;82.76;99573.34;5033851;28;20038;-69
2023/03/08 04:32:51;;;;;;;22.87;16.63;;;4.50;99.90;;;4.46;83.03;99560.28;5032443;28;20053;-69
2023/03/08 04:35:22;;;;;;;21.47;15.90;;;4.40;99.90;;;4.46;83.36;99565.50;5032574;28;20463;-68
2023/03/08 04:37:53;;;;;;;22.33;17.23;;;4.40;99.90;;;4.13;83.80;99560.28;5032141;28;20063;-69
2023/03/08 04:40:24;;;;;;;25.47;19.60;;;4.20;99.90;;;3.72;84.90;99535.00;5032325;28;20050;-69
2023/03/08 04:42:59;;;;;;;29.17;19.47;;;3.90;99.90;;;3.73;86.08;99524.53;5032360;28;20055;-69
2023/03/08 04:45:36;;;;;;;29.57;19.73;;;3.80;99.90;;;3.96;86.34;99550.69;5033624;28;20056;-69
2023/03/08 04:48:11;;;;;;;25.90;19.40;;;3.90;99.90;;;4.13;86.09;99555.06;5032279;28;20061;-68
2023/03/08 04:50:40;;;;;;;28.52;20.33;;;4.00;99.90;;;4.32;86.38;99540.22;5031986;28;20065;-68
2023/03/08 04:53:10;;;;;;;29.70;19.20;;;4.10;99.90;;;4.39;85.99;99542.81;5031807;28;20055;-67
2023/03/08 04:55:38;;;;;;;25.73;17.97;;;4.20;99.90;;;4.46;85.80;99526.25;5031681;28;20061;-68
2023/03/08 04:58:07;;;;;;;23.77;18.10;;;4.30;99.90;;;4.48;85.37;99516.66;5033093;28;20042;-68
2023/03/08 05:00:36;;;;;;;23.97;17.57;;;4.40;99.90;;;4.45;85.28;99511.41;5031937;28;20080;-68
2023/03/08 05:03:05;;;;;;;27.13;19.60;;;4.40;99.90;;;4.60;85.59;99510.50;5031997;28;20076;-69
2023/03/08 05:05:35;;;;;;;28.77;20.10;;;4.50;99.90;;;4.52;85.25;99501.81;5033221;28;20052;-68
2023/03/08 05:08:04;;;;;;;30.40;19.42;;;4.50;99.90;;;4.59;84.85;99509.63;5031560;28;20088;-69
2023/03/08 05:10:35;;;;;;;27.97;19.20;;;4.50;99.90;;;4.65;84.83;99502.63;5033148;28;20041;-68
2023/03/08 05:13:03;;;;;;;27.63;19.13;;;4.50;99.90;;;4.70;84.99;99498.25;5033008;28;20037;-68
2023/03/08 05:15:32;;;;;;;27.50;20.27;;;4.60;99.90;;;4.54;84.90;99473.88;5031855;28;20053;-68
2023/03/08 05:18:00;;;;;;;31.73;22.60;;;4.50;99.90;;;4.50;84.88;99461.66;5033117;28;20136;-69
2023/03/08 05:20:28;;;;;;;36.90;24.30;;;4.50;99.90;;;4.68;85.18;99476.44;5031692;28;20045;-68
2023/03/08 05:22:59;;;;;;;33.90;24.83;;;4.60;99.90;;;4.62;85.18;99452.91;5031620;28;20152;-69
2023/03/08 05:25:42;;;;;;;33.13;22.67;;;4.60;99.90;;;4.59;85.44;99464.25;5030936;28;20056;-68
2023/03/08 05:28:14;;;;;;;34.87;21.70;;;4.50;99.90;;;4.56;85.51;99456.41;5031596;28;20068;-66
2023/03/08 05:30:44;;;;;;;33.73;22.47;;;4.50;99.90;;;4.52;85.52;99455.56;5031666;28;20049;-70
2023/03/08 05:33:14;;;;;;;34.17;22.00;;;4.50;99.90;;;4.52;86.03;99452.94;5031551;28;20477;-69
2023/03/08 05:35:42;;;;;;;31.47;22.30;;;4.50;99.90;;;4.38;86.50;99439.03;5031505;28;20168;-69
2023/03/08 05:38:12;;;;;;;32.57;21.27;;;4.40;99.90;;;4.52;86.07;99444.22;5031714;28;20057;-69
2023/03/08 05:40:41;;;;;;;31.75;21.83;;;4.40;99.90;;;4.36;86.68;99430.31;5031390;28;20049;-69
2023/03/08 05:43:11;;;;;;;31.23;20.88;;;4.40;99.90;;;4.52;86.73;99442.47;5031417;28;20093;-69
2023/03/08 05:45:40;;;;;;;37.00;23.43;;;4.40;99.90;;;4.45;86.45;99440.72;5031330;28;20053;-69
2023/03/08 05:48:08;;;;;;;32.77;22.43;;;4.40;99.90;;;4.48;86.83;99437.25;5032642;28;20048;-69
2023/03/08 05:50:38;;;;;;;36.87;23.57;;;4.40;99.90;;;4.51;86.99;99434.59;5031365;28;20410;-69
2023/03/08 05:53:07;;;;;;;37.72;23.70;;;4.40;99.90;;;4.46;87.17;99432.03;5031121;28;20045;-69
2023/03/08 05:55:37;;;;;;;42.37;26.17;;;4.40;99.90;;;4.34;87.09;99418.97;5031046;28;20099;-69
2023/03/08 05:58:06;;;;;;;;;;;4.40;99.90;;;4.04;87.40;99387.66;5031887;28;20500;-69
2023/03/08 06:00:35;;;;;;;45.07;28.83;;;4.20;99.90;;;4.23;88.17;99412.91;5030974;28;19925;-69
2023/03/08 06:03:04;;;;;;;42.97;28.00;;;4.20;99.90;;;4.26;88.06;99412.00;5031294;28;20050;-69
2023/03/08 06:05:35;;;;;;;61.00;32.27;;;4.20;99.90;;;4.11;88.46;99405.06;5031318;28;20567;-70
2023/03/08 06:08:05;;;;;;;51.23;32.80;;;4.10;99.90;;;4.04;89.04;99442.59;5031456;28;20077;-69
2023/03/08 06:10:34;;;;;;;52.17;32.90;;;4.00;99.90;;;4.12;89.30;99411.19;5031082;28;20048;-69
2023/03/08 06:13:04;;;;;;;67.17;35.03;;;4.10;99.90;;;3.90;89.75;99414.69;5032312;28;20068;-69
2023/03/08 06:15:32;;;;;;;53.28;34.13;;;4.00;99.90;;;3.88;90.31;99421.66;5031115;28;20099;-69
2023/03/08 06:18:01;;;;;;;55.23;34.33;;;3.90;99.90;;;4.01;90.80;99419.03;5030973;28;20591;-69
2023/03/08 06:20:31;;;;;;;57.03;35.50;;;3.90;99.90;;;3.92;90.62;99420.81;5030971;28;20095;-69
2023/03/08 06:23:00;;;;;;;63.28;37.78;;;3.90;99.90;;;3.89;91.12;99413.81;5031201;28;20049;-69
2023/03/08 06:25:31;;;;;;;;;;;3.90;99.90;;;3.82;91.65;99412.09;5031463;28;20053;-69
2023/03/08 06:28:00;;;;;;;71.73;38.40;;;3.90;99.90;;;3.63;91.70;99413.88;5031065;28;20253;-69
2023/03/08 06:30:38;;;;;;;75.83;40.97;;;3.70;99.90;;;3.67;92.45;99418.22;5031167;28;20059;-69
2023/03/08 06:33:06;;;;;;;68.95;41.22;;;3.70;99.90;;;3.55;93.33;99417.34;5032212;28;20041;-69
2023/03/08 06:35:35;;;;;;;72.87;42.70;;;3.60;99.90;;;3.19;93.86;99409.47;5030943;28;20073;-69
2023/03/08 06:38:05;;;;;;;77.50;45.80;;;3.40;99.90;;;3.27;94.77;99415.59;5034535;28;20184;-69
2023/03/08 06:40:34;;;;;;;101.97;46.73;;;3.30;99.90;;;3.19;94.99;99405.13;5034487;28;20073;-69
2023/03/08 06:43:03;;;;;;;83.60;48.53;;;3.30;99.90;;;3.39;95.60;99410.34;5034258;28;20095;-69
2023/03/08 06:45:33;;;;;;;80.60;49.07;;;3.30;99.90;;;3.32;95.89;99411.22;5034451;28;20049;-69
2023/03/08 06:48:03;;;;;;;80.10;48.63;;;3.30;99.90;;;3.51;95.68;99399.91;5034136;28;20045;-70
2023/03/08 06:50:32;;;;;;;84.45;49.92;;;3.40;99.90;;;3.43;95.47;99383.34;5035761;28;20048;-70
2023/03/08 06:53:01;;;;;;;78.70;48.77;;;3.50;99.90;;;3.44;95.72;99396.44;5035620;28;20127;-70
2023/03/08 06:55:53;;;;;;;102.03;54.00;;;3.50;99.90;;;3.28;96.06;99402.53;5034029;28;20488;-69
2023/03/08 06:58:21;;;;;;;86.30;51.70;;;3.40;99.90;;;3.07;97.26;99404.22;5034290;28;20068;-69
2023/03/08 07:00:50;;;;;;;112.80;54.70;;;3.10;99.90;;;2.87;97.65;99403.31;5035133;28;20048;-69
2023/03/08 07:03:20;;;;;;;109.77;56.20;;;3.00;99.90;;;2.46;98.90;99392.72;5035534;28;20080;-69
2023/03/08 07:05:48;;;;;;;134.75;60.38;;;2.60;99.90;;;2.42;99.18;99398.84;5035101;28;20045;-70
2023/03/08 07:08:17;;;;;;;102.47;57.87;;;2.50;99.90;;;2.62;100.00;99384.97;5035137;28;20420;-69
2023/03/08 07:10:45;;;;;;;117.87;58.83;;;2.60;99.90;;;2.52;100.00;99384.94;5035005;28;20041;-69
2023/03/08 07:13:13;;;;;;;103.10;58.77;;;2.50;99.90;;;2.41;100.00;99387.53;5033920;28;20053;-69
2023/03/08 07:15:42;;;;;;;106.70;59.20;;;2.50;99.90;;;2.37;100.00;99390.09;5033979;28;20416;-70
2023/03/08 07:18:10;;;;;;;109.83;59.93;;;2.30;99.90;;;2.46;100.00;99390.13;5034866;28;20033;-69
2023/03/08 07:20:40;;;;;;;142.10;64.43;;;2.40;99.90;;;2.19;100.00;99377.84;5033569;28;20448;-69
2023/03/08 07:23:08;;;;;;;120.97;64.75;;;2.30;99.90;;;2.09;100.00;99377.81;5034715;28;20051;-69
2023/03/08 07:25:39;;;;;;;114.90;64.20;;;2.00;99.90;;;2.25;100.00;99377.00;5035109;28;20049;-69
2023/03/08 07:28:07;;;;;;;131.13;67.80;;;2.20;99.90;;;2.21;100.00;99372.63;5035011;28;20053;-69
2023/03/08 07:30:35;;;;;;;126.97;65.83;;;2.20;99.90;;;2.22;100.00;99380.50;5034817;28;20041;-69
2023/03/08 07:33:04;;;;;;;133.30;65.97;;;2.20;99.90;;;2.22;100.00;99366.56;5034836;28;20077;-69
2023/03/08 07:35:32;;;;;;;117.20;63.73;;;2.20;99.90;;;2.14;100.00;99365.66;5034631;28;20092;-69
2023/03/08 07:38:02;;;;;;;117.97;63.27;;;2.10;99.90;;;2.23;100.00;99366.56;5034716;28;20072;-69
2023/03/08 07:40:30;;;;;;;112.75;61.67;;;2.10;99.90;;;2.04;100.00;99369.06;5033390;28;20412;-69
2023/03/08 07:42:59;;;;;;;111.67;59.80;;;2.10;99.90;;;2.12;100.00;99365.66;5034464;28;20464;-69
2023/03/08 07:45:51;;;;;;;109.70;57.53;;;2.10;99.90;;;2.03;100.00;99372.56;5026158;28;20092;-69
2023/03/08 07:48:19;;;;;;;106.70;56.63;;;1.90;99.90;;;1.86;100.00;99372.44;5032487;28;20116;-69
2023/03/08 07:50:47;;;;;;;102.93;56.63;;;1.80;99.90;;;1.71;100.00;99361.94;5034279;28;20037;-69
2023/03/08 07:53:17;;;;;;;95.13;54.63;;;1.70;99.90;;;1.78;100.00;99355.91;5033277;28;20045;-69
2023/03/08 07:55:46;;;;;;;84.32;48.65;;;1.70;99.90;;;1.69;100.00;99367.16;5034522;28;20471;-69
2023/03/08 07:58:14;;;;;;;88.20;47.80;;;1.70;99.90;;;1.64;100.00;99363.66;5034232;28;20056;-69
2023/03/08 08:00:42;;;;;;;81.93;43.20;;;1.60;99.90;;;1.71;100.00;99359.31;5033958;28;20038;-70
2023/03/08 08:03:11;;;;;;;80.90;45.93;;;1.70;99.90;;;1.76;100.00;99353.28;5032862;28;20045;-70
2023/03/08 08:05:39;;;;;;;77.67;43.10;;;1.70;99.90;;;1.67;100.00;99352.34;5033188;28;20041;-70
2023/03/08 08:08:09;;;;;;;78.13;44.83;;;1.70;99.90;;;1.74;100.00;99344.59;5033044;28;20516;-69
2023/03/08 08:10:38;;;;;;;76.07;43.60;;;1.70;99.90;;;1.73;100.00;99353.28;5034203;28;20513;-69
2023/03/08 08:13:07;;;;;;;77.05;43.65;;;1.70;99.90;;;1.77;100.00;99346.34;5034299;28;20053;-70
2023/03/08 08:15:35;;;;;;;68.93;42.40;;;1.70;99.90;;;1.31;100.00;99224.53;5033830;28;20041;-70
2023/03/08 08:18:04;;;;;;;77.87;43.93;;;1.90;99.90;;;2.17;100.00;99353.50;5033768;28;20120;-71
2023/03/08 08:20:33;;;;;;;78.03;44.70;;;2.10;99.90;;;2.12;100.00;99352.63;5032665;28;20053;-69
2023/03/08 08:23:01;;;;;;;74.13;43.77;;;2.10;99.90;;;2.18;100.00;99350.03;5034223;28;20052;-69
2023/03/08 08:25:30;;;;;;;74.93;43.93;;;2.20;99.90;;;2.23;100.00;99340.50;5033974;28;20045;-69
2023/03/08 08:27:59;;;;;;;80.03;47.43;;;2.20;99.90;;;2.22;100.00;99348.31;5033620;28;20080;-68
2023/03/08 08:30:28;;;;;;;73.55;42.30;;;2.20;99.90;;;2.52;100.00;99348.41;5033531;28;20044;-68
2023/03/08 08:33:00;;;;;;;76.90;44.53;;;2.40;99.90;;;2.32;100.00;99337.06;5033519;28;20045;-68
2023/03/08 08:35:28;;;;;;;71.70;40.43;;;2.40;99.90;;;2.26;100.00;99337.91;5033462;28;20048;-68
2023/03/08 08:38:10;;;;;;;68.80;38.83;;;2.30;99.90;;;2.18;100.00;99342.22;5032473;28;20102;-68
2023/03/08 08:40:38;;;;;;;68.63;40.00;;;2.20;99.90;;;1.98;100.00;99333.41;5032267;28;20053;-70
2023/03/08 08:43:08;;;;;;;70.20;39.93;;;2.00;99.90;;;2.11;100.00;99330.00;5033317;28;20072;-70
2023/03/08 08:45:36;;;;;;;65.60;37.40;;;2.10;99.90;;;1.75;100.00;99303.78;5032004;28;20045;-70
2023/03/08 08:48:05;;;;;;;65.63;37.40;;;2.00;99.90;;;1.82;100.00;99315.94;5033147;28;20041;-70
2023/03/08 08:50:33;;;;;;;58.10;35.10;;;1.80;99.90;;;1.81;100.00;99329.88;5033520;28;20052;-70
2023/03/08 08:53:02;;;;;;;60.90;36.00;;;1.80;99.90;;;2.07;100.00;99332.59;5033176;28;20038;-67
2023/03/08 08:55:32;;;;;;;62.83;35.13;;;2.00;99.90;;;2.12;100.00;99318.72;5033461;28;20080;-68
2023/03/08 08:58:01;;;;;;;59.17;33.72;;;2.10;99.90;;;1.91;100.00;99318.63;5031716;28;20042;-70
2023/03/08 09:00:33;;;;;;;55.23;34.27;;;2.00;99.90;;;1.99;100.00;99324.75;5033050;28;20120;-69
2023/03/08 09:03:02;;;;;;;53.07;31.30;;;1.90;99.90;;;1.86;100.00;99317.72;5032979;28;20116;-70
2023/03/08 09:05:31;;;;;;;55.87;32.43;;;1.90;99.90;;;1.82;100.00;99319.44;5033258;28;20095;-71
2023/03/08 09:08:02;;;;;;;57.13;32.20;;;1.80;99.90;;;1.94;100.00;99295.16;5033184;28;20480;-72
2023/03/08 09:10:36;;;;;;;57.63;32.67;;;1.90;99.90;;;1.88;100.00;99299.50;5033454;28;20053;-71
2023/03/08 09:13:05;;;;;;;53.17;33.03;;;1.90;99.90;;;1.88;100.00;99271.69;5032945;28;20132;-71
2023/03/08 09:15:36;;;;;;;54.47;31.43;;;1.90;99.90;;;1.80;100.00;99282.06;5033379;28;20049;-71
2023/03/08 09:18:05;;;;;;;53.90;30.63;;;1.80;99.90;;;1.64;100.00;99271.59;5032794;28;20069;-70
2023/03/08 09:20:33;;;;;;;48.83;29.43;;;1.70;99.90;;;1.76;100.00;99274.25;5032697;28;20049;-71
2023/03/08 09:23:01;;;;;;;52.80;30.10;;;1.80;99.90;;;1.88;100.00;99279.50;5032901;28;20045;-70
2023/03/08 09:25:30;;;;;;;46.07;28.83;;;1.90;99.90;;;1.86;100.00;99270.81;5031318;28;20128;-70
2023/03/08 09:27:58;;;;;;;47.53;28.70;;;1.80;99.90;;;1.98;100.00;99267.38;5031323;28;20053;-70
2023/03/08 09:30:28;;;;;;;35.33;23.67;;;2.00;99.90;;;1.89;100.00;99277.78;5032619;28;20129;-70
2023/03/08 09:32:58;;;;;;;40.27;23.83;;;1.90;99.90;;;1.80;100.00;99274.25;5032661;28;20045;-70
2023/03/08 09:35:26;;;;;;;40.03;25.95;;;1.80;99.90;;;1.83;100.00;99270.81;5032846;28;20466;-67
2023/03/08 09:37:55;;;;;;;37.90;24.97;;;1.80;99.90;;;2.05;100.00;99267.44;5031425;28;20057;-65
2023/03/08 09:40:26;;;;;;;38.17;22.30;;;2.00;99.90;;;2.10;100.00;99276.13;5032490;28;20045;-69
2023/03/08 09:42:58;;;;;;;33.37;22.77;;;2.10;99.90;;;2.22;100.00;99267.47;5032545;28;20041;-70
2023/03/08 09:45:28;;;;;;;30.33;20.00;;;2.20;99.90;;;2.41;100.00;99283.19;5031395;28;20435;-69
2023/03/08 09:48:06;;;;;;;32.33;22.05;;;2.40;99.90;;;2.66;100.00;99282.34;5031345;28;20502;-69
2023/03/08 09:50:43;;;;;;;28.97;18.77;;;2.60;99.90;;;2.39;100.00;99279.69;5032515;28;20049;-69
2023/03/08 09:53:23;;;;;;;32.47;19.93;;;2.50;99.90;;;2.29;100.00;99272.72;5031411;28;20088;-69
2023/03/08 09:55:56;;;;;;;32.63;20.13;;;2.30;99.90;;;2.40;100.00;99226.63;5032775;28;20049;-69
2023/03/08 09:58:35;;;;;;;30.93;20.23;;;2.50;99.90;;;2.54;100.00;99269.28;5032308;28;20069;-69
2023/03/08 10:01:18;;;;;;;30.20;19.57;;;2.50;99.90;;;2.56;100.00;99271.88;5032627;28;20042;-69
2023/03/08 10:04:28;;;;;;;30.67;21.07;;;2.60;99.90;;;2.51;100.00;99248.41;5032504;28;20034;-69
2023/03/08 10:07:15;;;;;;;30.10;19.60;;;2.50;99.90;;;2.72;100.00;99206.69;5032812;28;20120;-69
2023/03/08 10:09:55;;;;;;;29.63;20.07;;;2.80;99.90;;;2.82;100.00;99238.88;5032544;28;20072;-69
2023/03/08 10:12:29;;;;;;;32.53;20.95;;;2.90;99.90;;;3.04;100.00;99226.69;5035846;28;20059;-69
2023/03/08 10:15:04;;;;;;;24.30;17.30;;;3.00;99.90;;;3.03;98.21;99227.53;5036248;28;20069;-69
2023/03/08 10:17:42;;;;;;;25.30;17.03;;;3.00;99.90;;;3.02;97.16;99225.81;5036181;28;20108;-69
2023/03/08 10:20:20;;;;;;;25.37;17.33;;;3.00;99.90;;;3.12;98.01;99217.06;5035024;28;20489;-69
2023/03/08 10:22:56;;;;;;;25.17;17.27;;;3.00;99.90;;;3.10;96.94;99234.47;5036404;28;20048;-69
2023/03/08 10:25:30;;;;;;;26.00;17.63;;;3.10;99.90;;;2.85;97.50;99181.44;5035943;28;20038;-69
2023/03/08 10:28:01;;;;;;;23.43;16.30;;;3.10;99.90;;;3.07;97.23;99232.75;5035922;28;20060;-69
2023/03/08 10:30:36;;;;;;;24.77;17.17;;;3.10;99.90;;;3.40;97.53;99224.00;5036284;28;20065;-69
2023/03/08 10:33:10;;;;;;;24.10;17.43;;;3.30;99.90;;;3.16;95.93;99247.53;5036198;28;20060;-69
2023/03/08 10:35:57;;;;;;;24.07;17.63;;;3.20;99.90;;;2.85;95.16;99249.28;5036090;28;20049;-69